Kampen, Netherlands
Current Conditions -  °F | °C
As of 9:25 PM on Friday 21 Nov 2014 (Local Time) from EHDL Reporting Station
Haze Haze  
Wind Chill: 35°   Ceiling: 13000
Heat Index: 41°   Visibility: 6mi
Dew Point: 37°   Wind: 9mph
Humidity: 87%   Direction: 100°E
Pressure: 30.12"   Gusts: NA
Location:  52.56°N, 5.91°E
Report Text: EHDL 212025Z AUTO 10008KT 9000 BR OVC130 05/03 Q1020 BLU
Loading
Personal Weather Stations






























Interactive Weather Map New forecast layout! Learn more

10-Day Weather Forecast

Advertisements
Track Severe Weather on mobile